Terminal Aerodrome Forecast
Issued by NWS Greer, SC

Home | Current Version | Previous Version | Text Only | Print | Product List | Glossary On
Versions: 1 2 3 4 5 6 7 8 9 10 11 12 13 14 15 16 17 18 19 20 21 22 23 24 25 26 27 28 29 30 31 32 33 34 35 36
000
FTUS42 KGSP 262338
TAFCLT
TAF
KCLT 262338Z 2700/2806 21008KT P6SM SCT035 BKN060
      TEMPO 2700/2703 VRB08G15KT 4SM -TSRA OVC025CB
     FM270800 18005KT P6SM BKN015
     FM271000 18005KT P6SM BKN007
     FM271400 19006KT P6SM BKN015
     FM271700 18007KT P6SM BKN035 PROB30 2719/2801 4SM -SHRA OVC025
     FM280100 16006KT P6SM VCSH BKN040=

USA.gov is the U.S. government's official web portal to all federal, state and local government web resources and services.